This is the latest recevied weather packets stored in our database for station/object W2SRH. If no packets are shown the sender has not sent any weather packets the latest 10 day(s).
| Time | Temp. | Humidity | Pressure | Rain* | Wind** | Luminosity | Snow |
|---|---|---|---|---|---|---|---|
| 1777793344 | 6.67° C | 55% | 1002.2 hPa | 0 mm | 0 m/s | - | - |
| 1777792744 | 7.22° C | 54% | 1002.2 hPa | 0 mm | 0 m/s | - | - |
| 1777792204 | 7.78° C | 53% | 1002.2 hPa | 0 mm | 0 m/s | - | - |
| 1777792144 | 7.78° C | 53% | 1002.2 hPa | 0 mm | 0 m/s | - | - |
| 1777791544 | 7.78° C | 54% | 1002.2 hPa | 0 mm | 0.45 m/s, 299° | - | - |
| 1777790943 | 7.78° C | 54% | 1002.1 hPa | 0 mm | 0.45 m/s, 327° | - | - |
| 1777790344 | 7.78° C | 53% | 1002.2 hPa | 0 mm | 0 m/s | - | - |
| 1777789744 | 7.78° C | 52% | 1002.3 hPa | 0 mm | 0 m/s | - | - |
| 1777789143 | 8.33° C | 51% | 1002.4 hPa | 0 mm | 0 m/s | - | - |
| 1777788543 | 8.33° C | 50% | 1002.4 hPa | 0 mm | 0.89 m/s, 314° | - | - |
| 1777787943 | 8.33° C | 50% | 1002.6 hPa | 0 mm | 0.45 m/s, 316° | - | - |
| 1777787344 | 8.89° C | 50% | 1002.5 hPa | 0 mm | 0 m/s | - | - |
| 1777786743 | 8.89° C | 49% | 1002.7 hPa | 0 mm | 0.45 m/s, 321° | - | - |
| 1777786143 | 8.89° C | 48% | 1002.8 hPa | 0 mm | 0.45 m/s, 316° | - | - |
| 1777785544 | 9.44° C | 48% | 1002.8 hPa | 0 mm | 0.45 m/s, 313° | - | - |
| 1777784945 | 9.44° C | 47% | 1002.9 hPa | 0 mm | 0.89 m/s, 310° | - | - |
| 1777784346 | 9.44° C | 47% | 1002.9 hPa | 0 mm | 0.45 m/s, 333° | - | - |
| 1777783745 | 9.44° C | 46% | 1003 hPa | 0 mm | 0.45 m/s, 324° | - | - |
| 1777783146 | 10° C | 46% | 1003.1 hPa | 0 mm | 0.45 m/s, 313° | - | - |
| 1777782548 | 10° C | 45% | 1003.2 hPa | 0 mm | 1.34 m/s, 294° | - | - |
| 1777781944 | 10° C | 45% | 1003.1 hPa | 0 mm | 0.89 m/s, 311° | - | - |
| 1777781344 | 10° C | 44% | 1003.1 hPa | 0 mm | 1.34 m/s, 311° | - | - |
| 1777780743 | 10° C | 43% | 1003.2 hPa | 0 mm | 1.34 m/s, 302° | - | - |
| 1777780143 | 10.56° C | 43% | 1003.2 hPa | 0 mm | 0.89 m/s, 319° | - | - |
| 1777779544 | 10.56° C | 43% | 1003.1 hPa | 0 mm | 1.34 m/s, 307° | - | - |
* Rain latest hour (hover to see other rain measurements)
** Current wind speed in m/s (hover to see current wind gust speed)